This is the latest recevied weather packets stored in our database for station/object BMCB-30. If no packets are shown the sender has not sent any weather packets the latest 10 day(s).
| Time | Temp. | Humidity | Pressure | Rain* | Wind** | Luminosity | Snow |
|---|---|---|---|---|---|---|---|
| 1777722045 | 21.67° C | 58% | 1019.3 hPa | 0 mm | - | 444 W/m² | - |
| 1777719643 | 21.67° C | 59% | 1019.8 hPa | 0 mm | - | 410 W/m² | - |
| 1777716649 | 21.11° C | 61% | 1020.1 hPa | 0 mm | - | 328 W/m² | - |
| 1777710042 | 18.33° C | 72% | 1021.1 hPa | 0 mm | - | 368 W/m² | - |
| 1777708247 | 16.11° C | 80% | 1021.4 hPa | 0 mm | - | 270 W/m² | - |
| 1777689043 | 9.44° C | 75% | 1022.7 hPa | 0 mm | - | 0 W/m² | - |
| 1777688441 | 8.89° C | 80% | 1023 hPa | 0 mm | - | 0 W/m² | - |
| 1777686044 | 7.78° C | 81% | 1023 hPa | 0 mm | - | 0 W/m² | - |
| 1777684844 | 7.78° C | 80% | 1023 hPa | 0 mm | - | 0 W/m² | - |
| 1777684246 | 7.78° C | 79% | 1022.9 hPa | 0 mm | - | 0 W/m² | - |
| 1777679449 | 10° C | 67% | 1023 hPa | 0 mm | - | 0 W/m² | - |
| 1777671051 | 10.56° C | 68% | 1023.9 hPa | 0 mm | - | 0 W/m² | - |
| 1777665649 | 15° C | 49% | 1023.3 hPa | 0 mm | - | 0 W/m² | - |
| 1777663847 | 16.67° C | 41% | 1023.2 hPa | 0 mm | - | 0 W/m² | - |
| 1777660247 | 20.56° C | 31% | 1022.4 hPa | 0 mm | - | 20 W/m² | - |
| 1777656649 | 22.78° C | 25% | 1022 hPa | 0 mm | - | 52 W/m² | - |
| 1777655446 | 22.78° C | 24% | 1022.1 hPa | 0 mm | - | 102 W/m² | - |
| 1777651845 | 23.89° C | 22% | 1022.3 hPa | 0 mm | - | 394 W/m² | - |
| 1777650645 | 23.33° C | 21% | 1022.3 hPa | 0 mm | - | 452 W/m² | - |
| 1777649444 | 22.78° C | 21% | 1022.5 hPa | 0 mm | - | 506 W/m² | - |
| 1777645243 | 22.78° C | 21% | 1022.9 hPa | 0 mm | - | 670 W/m² | - |
| 1777644042 | 22.22° C | 22% | 1023 hPa | 0 mm | - | 704 W/m² | - |
| 1777640445 | 21.11° C | 24% | 1023.8 hPa | 0 mm | - | 376 W/m² | - |
| 1777632649 | 20° C | 21% | 1024.8 hPa | 0 mm | - | 818 W/m² | - |
| 1777632042 | 19.44° C | 21% | 1024.8 hPa | 0 mm | - | 810 W/m² | - |
* Rain latest hour (hover to see other rain measurements)
** Current wind speed in m/s (hover to see current wind gust speed)